Time;durP1;ratioP1;P1;durP2;ratioP2;P2;SDS_P1;SDS_P2;PMS_P1;PMS_P2;Temp;Humidity;BMP_temperature;BMP_pressure;BME280_temperature;BME280_humidity;BME280_pressure;Samples;Min_cycle;Max_cycle;Signal;HPM_P1;HPM_P2
2023/10/01 00:00:03;;;;;;;22.15;18.70;;;;;;;;;;5069132;28;20446;-66
2023/10/01 00:02:28;;;;;;;25.55;18.45;;;;;;;;;;5071919;28;20100;-62
2023/10/01 00:04:54;;;;;;;22.35;18.50;;;;;;;;;;5069676;28;20087;-60
2023/10/01 00:07:19;;;;;;;26.48;19.15;;;;;;;;;;5069908;28;20115;-59
2023/10/01 00:09:44;;;;;;;27.08;20.33;;;;;;;;;;5071301;28;20020;-59
2023/10/01 00:12:10;;;;;;;30.73;18.43;;;;;;;;;;5069754;28;20028;-59
2023/10/01 00:14:36;;;;;;;23.00;18.58;;;;;;;;;;5071372;28;20573;-60
2023/10/01 00:17:01;;;;;;;24.53;18.93;;;;;;;;;;5068054;28;20037;-60
2023/10/01 00:19:27;;;;;;;25.65;17.90;;;;;;;;;;5071441;28;20060;-61
2023/10/01 00:21:53;;;;;;;29.20;18.27;;;;;;;;;;5069692;28;20040;-61
2023/10/01 00:24:18;;;;;;;20.40;16.42;;;;;;;;;;5070692;28;20043;-62
2023/10/01 00:26:43;;;;;;;24.23;16.85;;;;;;;;;;5069335;28;20101;-62
2023/10/01 00:29:09;;;;;;;22.48;17.40;;;;;;;;;;5071495;28;20027;-62
2023/10/01 00:31:36;;;;;;;21.88;18.10;;;;;;;;;;5068988;28;20483;-61
2023/10/01 00:34:03;;;;;;;25.80;18.97;;;;;;;;;;5070971;28;20055;-61
2023/10/01 00:36:29;;;;;;;26.77;16.67;;;;;;;;;;5069712;28;20791;-62
2023/10/01 00:38:54;;;;;;;19.10;15.63;;;;;;;;;;5070348;28;20017;-72
2023/10/01 00:41:20;;;;;;;18.27;14.13;;;;;;;;;;5069453;28;20560;-61
2023/10/01 00:43:45;;;;;;;27.02;17.15;;;;;;;;;;5070403;28;20025;-62
2023/10/01 00:46:11;;;;;;;24.30;17.08;;;;;;;;;;5069268;28;20052;-61
2023/10/01 00:48:36;;;;;;;21.85;16.63;;;;;;;;;;5069282;28;20017;-61
2023/10/01 00:51:02;;;;;;;21.95;16.20;;;;;;;;;;5058829;28;20032;-61
2023/10/01 00:53:27;;;;;;;23.40;15.48;;;;;;;;;;5070028;28;20500;-61
2023/10/01 00:55:53;;;;;;;21.27;16.17;;;;;;;;;;5068739;28;20033;-61
2023/10/01 00:58:19;;;;;;;26.05;17.35;;;;;;;;;;5070874;28;20427;-62
2023/10/01 01:00:45;;;;;;;19.20;15.88;;;;;;;;;;5068247;28;20397;-61
2023/10/01 01:03:18;;;;;;;22.95;15.00;;;;;;;;;;5070539;28;20024;-61
2023/10/01 01:08:33;;;;;;;18.02;13.90;;;;;;;;;;5070530;28;20025;-61
2023/10/01 01:11:01;;;;;;;18.85;14.15;;;;;;;;;;5068612;28;20032;-61
2023/10/01 01:13:28;;;;;;;20.23;15.93;;;;;;;;;;5070657;28;20028;-62
2023/10/01 01:15:57;;;;;;;16.67;14.90;;;;;;;;;;5068617;28;20702;-63
2023/10/01 01:18:22;;;;;;;21.92;14.13;;;;;;;;;;5070547;28;20016;-63
2023/10/01 01:20:48;;;;;;;19.63;14.23;;;;;;;;;;5068846;28;20120;-62
2023/10/01 01:23:18;;;;;;;20.48;15.18;;;;;;;;;;5070089;28;20116;-63
2023/10/01 01:25:44;;;;;;;16.33;13.13;;;;;;;;;;5068725;28;20078;-63
2023/10/01 01:28:12;;;;;;;33.10;15.75;;;;;;;;;;5068945;28;20017;-62
2023/10/01 01:30:42;;;;;;;18.63;13.25;;;;;;;;;;5068285;28;20064;-63
2023/10/01 01:33:07;;;;;;;16.92;12.85;;;;;;;;;;5070269;28;20039;-61
2023/10/01 01:35:35;;;;;;;20.52;13.90;;;;;;;;;;5069083;28;20340;-62
2023/10/01 01:38:01;;;;;;;28.10;15.18;;;;;;;;;;5069907;28;20020;-62
2023/10/01 01:40:31;;;;;;;16.42;13.27;;;;;;;;;;5068388;28;20132;-62
2023/10/01 01:42:57;;;;;;;15.10;13.60;;;;;;;;;;5069666;28;20375;-62
2023/10/01 01:45:27;;;;;;;19.27;14.25;;;;;;;;;;5068236;28;20037;-61
2023/10/01 01:47:53;;;;;;;17.45;13.32;;;;;;;;;;5069903;28;20027;-61
2023/10/01 01:50:19;;;;;;;18.95;13.43;;;;;;;;;;5068435;28;20372;-61
2023/10/01 01:52:47;;;;;;;16.63;13.05;;;;;;;;;;5069390;28;20035;-61
2023/10/01 01:55:23;;;;;;;27.35;16.27;;;;;;;;;;5068169;28;20050;-71
2023/10/01 01:58:02;;;;;;;19.13;11.95;;;;;;;;;;5070141;28;20020;-69
2023/10/01 02:00:27;;;;;;;20.85;11.15;;;;;;;;;;5068084;28;20047;-61
2023/10/01 02:02:59;;;;;;;18.17;13.30;;;;;;;;;;5069567;28;20028;-61
2023/10/01 02:05:28;;;;;;;16.58;12.90;;;;;;;;;;5068841;28;20035;-60
2023/10/01 02:07:53;;;;;;;18.52;13.23;;;;;;;;;;5069330;28;20024;-60
2023/10/01 02:10:20;;;;;;;16.38;12.73;;;;;;;;;;5068538;28;20028;-60
2023/10/01 02:12:47;;;;;;;15.23;12.10;;;;;;;;;;5069771;28;20054;-60
2023/10/01 02:15:12;;;;;;;20.45;13.82;;;;;;;;;;5068046;28;20043;-60
2023/10/01 02:17:39;;;;;;;15.55;13.07;;;;;;;;;;5069990;28;20032;-66
2023/10/01 02:20:10;;;;;;;15.30;12.15;;;;;;;;;;5068647;28;20028;-60
2023/10/01 02:22:36;;;;;;;25.00;13.40;;;;;;;;;;5070165;28;20017;-60
2023/10/01 02:25:04;;;;;;;18.30;14.20;;;;;;;;;;5070295;28;20077;-60
2023/10/01 02:27:29;;;;;;;14.85;13.25;;;;;;;;;;5073486;28;20429;-60
2023/10/01 02:33:16;;;;;;;19.85;13.02;;;;;;;;;;5073258;28;20107;-61
2023/10/01 02:35:41;;;;;;;17.75;13.70;;;;;;;;;;5069375;28;20052;-61
2023/10/01 02:38:07;;;;;;;22.33;13.67;;;;;;;;;;5073582;28;20029;-61
2023/10/01 02:40:37;;;;;;;15.90;12.82;;;;;;;;;;5071941;28;20442;-61
2023/10/01 02:43:06;;;;;;;15.00;12.13;;;;;;;;;;5072414;28;20012;-61
2023/10/01 02:45:31;;;;;;;18.55;15.43;;;;;;;;;;5071970;28;20063;-61
2023/10/01 02:50:45;;;;;;;20.75;14.18;;;;;;;;;;5070638;28;20058;-60
2023/10/01 02:53:10;;;;;;;22.33;16.27;;;;;;;;;;5072647;28;20365;-60
2023/10/01 02:55:41;;;;;;;19.73;13.82;;;;;;;;;;5071706;28;20035;-60
2023/10/01 02:58:17;;;;;;;19.73;14.25;;;;;;;;;;5072891;28;20031;-60
2023/10/01 03:00:43;;;;;;;21.50;14.68;;;;;;;;;;5071344;28;20107;-60
2023/10/01 03:03:14;;;;;;;16.77;13.88;;;;;;;;;;5072592;28;20024;-61
2023/10/01 03:05:42;;;;;;;22.55;14.93;;;;;;;;;;5071073;28;20083;-60
2023/10/01 03:08:11;;;;;;;23.75;14.43;;;;;;;;;;5073047;28;20361;-60
2023/10/01 03:10:38;;;;;;;24.48;14.95;;;;;;;;;;5069834;28;20037;-60
2023/10/01 03:13:15;;;;;;;22.70;14.73;;;;;;;;;;5072340;28;20028;-61
2023/10/01 03:15:42;;;;;;;18.13;16.00;;;;;;;;;;5071148;28;20107;-61
2023/10/01 03:26:00;;;;;;;18.50;16.33;;;;;;;;;;5071092;28;20040;-61
2023/10/01 03:28:27;;;;;;;20.63;14.90;;;;;;;;;;5072017;28;20017;-60
2023/10/01 03:31:01;;;;;;;17.88;14.85;;;;;;;;;;5070927;28;20469;-60
2023/10/01 03:33:26;;;;;;;28.35;15.63;;;;;;;;;;5072038;28;20144;-61
2023/10/01 03:35:52;;;;;;;18.25;14.05;;;;;;;;;;5070396;28;20136;-61
2023/10/01 03:38:22;;;;;;;20.45;15.77;;;;;;;;;;5072446;28;20028;-61
2023/10/01 03:41:08;;;;;;;23.02;16.58;;;;;;;;;;5070399;28;20029;-62
2023/10/01 03:43:37;;;;;;;22.05;15.35;;;;;;;;;;5071802;28;20080;-60
2023/10/01 03:51:29;;;;;;;24.55;15.18;;;;;;;;;;5069842;28;20121;-60
2023/10/01 03:54:06;;;;;;;22.92;15.75;;;;;;;;;;5071826;28;20028;-60
2023/10/01 03:56:33;;;;;;;17.95;14.65;;;;;;;;;;5070486;28;20041;-60
2023/10/01 03:58:58;;;;;;;23.70;14.98;;;;;;;;;;5071439;28;20050;-61
2023/10/01 04:01:33;;;;;;;23.25;17.55;;;;;;;;;;5070392;28;20496;-60
2023/10/01 04:04:00;;;;;;;21.85;16.13;;;;;;;;;;5069762;28;20031;-60
2023/10/01 04:06:25;;;;;;;22.48;15.60;;;;;;;;;;5069901;28;20508;-60
2023/10/01 04:08:55;;;;;;;17.98;14.98;;;;;;;;;;5071230;28;20016;-60
2023/10/01 04:11:41;;;;;;;25.52;13.52;;;;;;;;;;5070374;28;20048;-61
2023/10/01 04:14:10;;;;;;;20.38;13.38;;;;;;;;;;5071068;28;20076;-61
2023/10/01 04:16:35;;;;;;;21.35;14.30;;;;;;;;;;5070106;28;20029;-61
2023/10/01 04:19:00;;;;;;;24.13;15.53;;;;;;;;;;5071003;28;20039;-60
2023/10/01 04:21:25;;;;;;;18.17;12.38;;;;;;;;;;5069740;28;20036;-60
2023/10/01 04:23:50;;;;;;;19.23;14.57;;;;;;;;;;5070401;28;20074;-61
2023/10/01 04:26:19;;;;;;;20.27;12.90;;;;;;;;;;5069885;28;20526;-61
2023/10/01 04:28:46;;;;;;;17.25;13.98;;;;;;;;;;5070585;28;20402;-61
2023/10/01 04:31:15;;;;;;;20.80;14.85;;;;;;;;;;5068415;28;20036;-61
2023/10/01 04:33:42;;;;;;;16.70;13.07;;;;;;;;;;5070418;28;20068;-62
2023/10/01 04:36:10;;;;;;;23.95;15.73;;;;;;;;;;5069419;28;20079;-61
2023/10/01 04:38:36;;;;;;;18.77;13.43;;;;;;;;;;5071259;28;20100;-61
2023/10/01 04:41:03;;;;;;;20.60;14.65;;;;;;;;;;5069620;28;20120;-61
2023/10/01 04:43:34;;;;;;;22.10;13.52;;;;;;;;;;5070535;28;20021;-62
2023/10/01 04:46:00;;;;;;;16.48;13.77;;;;;;;;;;5068772;28;20028;-62
2023/10/01 04:48:25;;;;;;;20.17;14.38;;;;;;;;;;5070775;28;20441;-62
2023/10/01 04:50:53;;;;;;;15.27;12.77;;;;;;;;;;5067299;28;20040;-64
2023/10/01 04:53:22;;;;;;;21.80;12.13;;;;;;;;;;5070712;28;20518;-62
2023/10/01 04:56:06;;;;;;;23.20;12.40;;;;;;;;;;5069149;28;20041;-62
2023/10/01 04:58:32;;;;;;;17.90;12.45;;;;;;;;;;5070759;28;20451;-61
2023/10/01 05:00:58;;;;;;;20.10;13.82;;;;;;;;;;5069118;28;20146;-62
2023/10/01 05:03:44;;;;;;;26.92;16.60;;;;;;;;;;5070368;28;20146;-65
2023/10/01 05:06:11;;;;;;;17.98;12.85;;;;;;;;;;5057846;28;20115;-64
2023/10/01 05:08:39;;;;;;;15.05;12.43;;;;;;;;;;5070366;28;20033;-62
2023/10/01 05:11:11;;;;;;;17.02;11.73;;;;;;;;;;5068880;28;20107;-60
2023/10/01 05:13:39;;;;;;;18.63;13.82;;;;;;;;;;5070423;28;20020;-58
2023/10/01 05:16:06;;;;;;;17.07;12.10;;;;;;;;;;5069092;28;20041;-61
2023/10/01 05:18:33;;;;;;;15.40;11.70;;;;;;;;;;5069930;28;20601;-59
2023/10/01 05:20:58;;;;;;;15.63;11.07;;;;;;;;;;5065178;28;20521;-63
2023/10/01 05:23:24;;;;;;;22.02;13.15;;;;;;;;;;5069400;28;20025;-59
2023/10/01 05:25:49;;;;;;;14.38;12.05;;;;;;;;;;5062773;28;20032;-60
2023/10/01 05:28:23;;;;;;;15.07;11.63;;;;;;;;;;5049074;28;20388;-60
2023/10/01 05:30:53;;;;;;;19.65;12.75;;;;;;;;;;5055301;28;20158;-60
2023/10/01 05:33:18;;;;;;;20.52;12.35;;;;;;;;;;5067571;28;20085;-60
2023/10/01 05:35:48;;;;;;;17.95;12.82;;;;;;;;;;5064028;28;20142;-60
2023/10/01 05:38:16;;;;;;;19.23;10.70;;;;;;;;;;5070004;28;20027;-60
2023/10/01 05:40:44;;;;;;;15.93;9.95;;;;;;;;;;5067356;28;20044;-60
2023/10/01 05:43:13;;;;;;;17.00;11.43;;;;;;;;;;5048101;28;20040;-60
2023/10/01 05:45:39;;;;;;;17.40;10.98;;;;;;;;;;5065122;28;20032;-60
2023/10/01 05:48:10;;;;;;;20.42;13.25;;;;;;;;;;5068957;28;20384;-60
2023/10/01 05:50:36;;;;;;;18.73;10.77;;;;;;;;;;5067428;28;20056;-60
2023/10/01 05:53:01;;;;;;;17.63;10.93;;;;;;;;;;5057196;28;20111;-60
2023/10/01 05:55:28;;;;;;;14.80;9.30;;;;;;;;;;5052356;28;20485;-60
2023/10/01 05:57:53;;;;;;;13.18;9.30;;;;;;;;;;5068860;28;20024;-60
2023/10/01 06:00:18;;;;;;;13.73;9.73;;;;;;;;;;5072138;28;20378;-60
2023/10/01 06:02:47;;;;;;;13.60;10.95;;;;;;;;;;5073101;28;20044;-60
2023/10/01 06:07:56;;;;;;;13.57;9.20;;;;;;;;;;5073373;28;20370;-60
2023/10/01 06:10:26;;;;;;;11.67;9.53;;;;;;;;;;5071634;28;20028;-62
2023/10/01 06:12:52;;;;;;;20.73;11.50;;;;;;;;;;5072208;28;20016;-60
2023/10/01 06:15:20;;;;;;;12.15;9.75;;;;;;;;;;5071840;28;20025;-58
2023/10/01 06:17:46;;;;;;;15.30;10.10;;;;;;;;;;5072589;28;20524;-59
2023/10/01 06:20:23;;;;;;;15.23;10.85;;;;;;;;;;5056823;28;20025;-59
2023/10/01 06:22:49;;;;;;;15.27;9.13;;;;;;;;;;5052524;28;20057;-58
2023/10/01 06:25:15;;;;;;;13.25;8.75;;;;;;;;;;5054110;28;20096;-58
2023/10/01 06:27:40;;;;;;;17.20;10.90;;;;;;;;;;5071841;28;20020;-58
2023/10/01 06:30:07;;;;;;;17.50;10.25;;;;;;;;;;5071663;28;20027;-58
2023/10/01 06:32:33;;;;;;;16.30;8.88;;;;;;;;;;5072436;28;20115;-58
2023/10/01 06:35:02;;;;;;;10.80;7.65;;;;;;;;;;5069916;28;20076;-58
2023/10/01 06:37:45;;;;;;;;;;;;;;;;;;5072995;28;20582;-60
2023/10/01 06:40:29;;;;;;;15.02;10.30;;;;;;;;;;5070875;28;19915;-61
2023/10/01 06:42:54;;;;;;;18.30;10.88;;;;;;;;;;5071483;28;20028;-66
2023/10/01 06:45:38;;;;;;;18.10;9.82;;;;;;;;;;5070934;28;20089;-59
2023/10/01 06:48:08;;;;;;;20.02;12.35;;;;;;;;;;5072630;28;20042;-63
2023/10/01 06:50:35;;;;;;;16.15;9.43;;;;;;;;;;5070420;28;20049;-59
2023/10/01 06:53:00;;;;;;;14.32;8.73;;;;;;;;;;5072473;28;20016;-66
2023/10/01 06:55:25;;;;;;;25.88;10.70;;;;;;;;;;5052482;28;20086;-59
2023/10/01 06:57:55;;;;;;;11.90;9.95;;;;;;;;;;5051299;28;20028;-59
2023/10/01 07:00:23;;;;;;;17.05;10.02;;;;;;;;;;5051187;28;20033;-58
2023/10/01 07:02:51;;;;;;;13.90;8.98;;;;;;;;;;5052116;28;20017;-58
2023/10/01 07:05:20;;;;;;;12.32;8.32;;;;;;;;;;5050189;28;20040;-58
2023/10/01 07:07:45;;;;;;;16.23;9.85;;;;;;;;;;5051491;28;20107;-58
2023/10/01 07:10:11;;;;;;;16.95;9.95;;;;;;;;;;5049083;28;20151;-58
2023/10/01 07:12:37;;;;;;;14.15;9.57;;;;;;;;;;5070249;28;20397;-58
2023/10/01 07:15:03;;;;;;;18.35;8.07;;;;;;;;;;5069969;28;20103;-58
2023/10/01 07:17:28;;;;;;;16.17;8.57;;;;;;;;;;5071604;28;20103;-59
2023/10/01 07:20:00;;;;;;;13.38;9.50;;;;;;;;;;5071355;28;20012;-58
2023/10/01 07:22:34;;;;;;;18.58;9.80;;;;;;;;;;5068484;28;20036;-59
2023/10/01 07:25:00;;;;;;;13.48;9.15;;;;;;;;;;5068568;28;20103;-58
2023/10/01 07:27:29;;;;;;;12.90;8.60;;;;;;;;;;5070866;28;20016;-60
2023/10/01 07:29:54;;;;;;;15.30;9.68;;;;;;;;;;5070634;28;20082;-58
2023/10/01 07:32:20;;;;;;;23.02;9.48;;;;;;;;;;5071228;28;20448;-60
2023/10/01 07:34:48;;;;;;;15.98;8.52;;;;;;;;;;5062337;28;20045;-60
2023/10/01 07:37:23;;;;;;;12.73;9.50;;;;;;;;;;5070061;28;20518;-60
2023/10/01 07:39:51;;;;;;;13.02;8.20;;;;;;;;;;5068595;28;20456;-61
2023/10/01 07:42:17;;;;;;;16.63;7.43;;;;;;;;;;5069059;28;20052;-59
2023/10/01 07:44:45;;;;;;;17.90;11.23;;;;;;;;;;5069763;28;20441;-60
2023/10/01 07:47:28;;;;;;;18.15;9.50;;;;;;;;;;5068086;28;20033;-59
2023/10/01 07:49:54;;;;;;;15.15;10.20;;;;;;;;;;5068048;28;20112;-59
2023/10/01 07:52:21;;;;;;;14.25;8.48;;;;;;;;;;5070332;28;20020;-59
2023/10/01 07:54:49;;;;;;;19.57;9.47;;;;;;;;;;5070976;28;20024;-59
2023/10/01 07:57:24;;;;;;;16.35;9.68;;;;;;;;;;5068870;28;21000;-60
2023/10/01 07:59:53;;;;;;;20.02;9.45;;;;;;;;;;5071053;28;20059;-59
2023/10/01 08:07:17;;;;;;;16.08;10.43;;;;;;;;;;5050068;28;20040;-59
2023/10/01 08:09:46;;;;;;;22.30;10.10;;;;;;;;;;5050760;28;20078;-60
2023/10/01 08:12:15;;;;;;;15.35;9.75;;;;;;;;;;5048665;28;20043;-59
2023/10/01 08:14:40;;;;;;;16.88;9.30;;;;;;;;;;5051189;28;20082;-60
2023/10/01 08:17:07;;;;;;;16.85;9.68;;;;;;;;;;5049404;28;20033;-70
2023/10/01 08:19:44;;;;;;;14.13;9.18;;;;;;;;;;5050023;28;20025;-59
2023/10/01 08:22:22;;;;;;;20.98;10.80;;;;;;;;;;5048550;28;20056;-59
2023/10/01 08:24:49;;;;;;;18.58;10.10;;;;;;;;;;5050100;28;20029;-59
2023/10/01 08:27:29;;;;;;;19.70;10.85;;;;;;;;;;5068249;28;20033;-59
2023/10/01 08:30:18;;;;;;;16.77;8.52;;;;;;;;;;5069105;28;20082;-59
2023/10/01 08:33:18;;;;;;;18.10;11.13;;;;;;;;;;5068407;28;20376;-60
2023/10/01 08:35:37;;;;;;;30.77;12.85;;;;;;;;;;5035022;28;20572;-59
2023/10/01 08:38:15;;;;;;;12.98;9.15;;;;;;;;;;5050749;28;20059;-57
2023/10/01 08:40:41;;;;;;;17.58;11.15;;;;;;;;;;5048432;28;20025;-65
2023/10/01 08:43:06;;;;;;;17.85;11.25;;;;;;;;;;5050713;28;20027;-59
2023/10/01 08:45:37;;;;;;;11.87;9.07;;;;;;;;;;5060108;28;20044;-59
2023/10/01 08:48:03;;;;;;;15.00;7.72;;;;;;;;;;5069236;28;20074;-58
2023/10/01 08:50:29;;;;;;;13.48;9.18;;;;;;;;;;5068705;28;20036;-59
2023/10/01 08:52:58;;;;;;;18.15;8.73;;;;;;;;;;5069181;28;20024;-59
2023/10/01 08:55:23;;;;;;;;;;;;;;;;;;5068127;28;20056;-60
2023/10/01 08:57:53;;;;;;;18.02;10.73;;;;;;;;;;5069550;28;19939;-59
2023/10/01 09:00:20;;;;;;;15.95;8.60;;;;;;;;;;5068453;28;20036;-60
2023/10/01 09:02:50;;;;;;;17.23;10.27;;;;;;;;;;5070258;28;20020;-60
2023/10/01 09:05:23;;;;;;;16.08;8.98;;;;;;;;;;5067467;28;20531;-59
2023/10/01 09:07:50;;;;;;;16.20;10.45;;;;;;;;;;5069561;28;20594;-60
2023/10/01 09:10:17;;;;;;;17.10;11.48;;;;;;;;;;5066183;28;20128;-59
2023/10/01 09:12:46;;;;;;;15.13;9.45;;;;;;;;;;5069957;28;20610;-59
2023/10/01 09:15:13;;;;;;;;;;;;;;;;;;5068946;28;20526;-59
2023/10/01 09:17:56;;;;;;;13.90;7.97;;;;;;;;;;5069133;28;19908;-59
2023/10/01 09:23:54;;;;;;;20.10;9.15;;;;;;;;;;5069207;28;20031;-59
2023/10/01 09:26:10;;;;;;;16.80;9.07;;;;;;;;;;5065889;28;20035;-59
2023/10/01 09:28:37;;;;;;;13.70;7.93;;;;;;;;;;5069552;28;20021;-60
2023/10/01 09:31:22;;;;;;;13.75;8.88;;;;;;;;;;5067350;28;20517;-59
2023/10/01 09:33:48;;;;;;;17.15;9.50;;;;;;;;;;5048782;28;20053;-59
2023/10/01 09:36:33;;;;;;;14.77;7.63;;;;;;;;;;5048578;28;20068;-59
2023/10/01 09:39:03;;;;;;;19.42;11.00;;;;;;;;;;5049311;28;20031;-59
2023/10/01 09:41:30;;;;;;;17.02;9.77;;;;;;;;;;5047379;28;20044;-59
2023/10/01 09:43:58;;;;;;;19.67;12.27;;;;;;;;;;5055070;28;20025;-59
2023/10/01 09:46:23;;;;;;;16.98;8.38;;;;;;;;;;5067201;28;20066;-59
2023/10/01 09:48:49;;;;;;;12.80;8.93;;;;;;;;;;5068270;28;20016;-59
2023/10/01 09:51:15;;;;;;;16.20;9.02;;;;;;;;;;5068200;28;20043;-69
2023/10/01 09:54:01;;;;;;;15.73;8.97;;;;;;;;;;5068332;28;20012;-59
2023/10/01 09:56:29;;;;;;;22.08;11.70;;;;;;;;;;5066639;28;20523;-61
2023/10/01 09:58:58;;;;;;;14.93;7.50;;;;;;;;;;5069550;28;20660;-59
2023/10/01 10:01:27;;;;;;;13.27;8.10;;;;;;;;;;5067794;28;20123;-59
2023/10/01 10:03:54;;;;;;;11.52;7.20;;;;;;;;;;5067246;28;20431;-59
2023/10/01 10:06:24;;;;;;;17.75;10.45;;;;;;;;;;5067471;28;20028;-59
2023/10/01 10:08:52;;;;;;;24.42;8.68;;;;;;;;;;5068106;28;20025;-59
2023/10/01 10:11:26;;;;;;;17.58;9.38;;;;;;;;;;5066636;28;20122;-59
2023/10/01 10:13:57;;;;;;;12.13;7.65;;;;;;;;;;5069135;28;20491;-59
2023/10/01 10:16:32;;;;;;;17.63;8.63;;;;;;;;;;5067328;28;20389;-58
2023/10/01 10:19:13;;;;;;;15.02;8.13;;;;;;;;;;5067906;28;20126;-59
2023/10/01 10:24:29;;;;;;;19.27;9.00;;;;;;;;;;5067659;28;20056;-58
2023/10/01 10:26:57;;;;;;;15.35;8.95;;;;;;;;;;5067432;28;20032;-59
2023/10/01 10:29:43;;;;;;;33.35;9.32;;;;;;;;;;5069255;28;20100;-59
2023/10/01 10:32:11;;;;;;;15.60;8.63;;;;;;;;;;5061147;28;20032;-58
2023/10/01 10:34:36;;;;;;;15.43;9.18;;;;;;;;;;5067697;28;20052;-59
2023/10/01 10:37:06;;;;;;;14.85;8.85;;;;;;;;;;5067053;28;20510;-59
2023/10/01 10:39:50;;;;;;;17.98;8.63;;;;;;;;;;5067777;28;20029;-59
2023/10/01 10:42:28;;;;;;;13.13;7.68;;;;;;;;;;5062162;28;20044;-59
2023/10/01 10:45:31;;;;;;;19.08;9.40;;;;;;;;;;5049613;28;20017;-58
2023/10/01 10:47:59;;;;;;;17.75;8.60;;;;;;;;;;5054949;28;20040;-59
2023/10/01 10:50:44;;;;;;;13.27;8.95;;;;;;;;;;5057037;28;20138;-59
2023/10/01 10:53:16;;;;;;;12.27;7.25;;;;;;;;;;5072297;28;20356;-59
2023/10/01 10:55:53;;;;;;;18.58;8.98;;;;;;;;;;5046191;28;20033;-59
2023/10/01 10:58:19;;;;;;;12.73;7.60;;;;;;;;;;5051861;28;20036;-59
2023/10/01 11:00:46;;;;;;;12.75;7.03;;;;;;;;;;5057707;28;20039;-59
2023/10/01 11:03:11;;;;;;;14.40;7.70;;;;;;;;;;5072124;28;20361;-59
2023/10/01 11:05:49;;;;;;;11.23;7.30;;;;;;;;;;5070795;28;20055;-59
2023/10/01 11:08:25;;;;;;;;;;;;;;;;;;5071346;28;20020;-59
2023/10/01 11:10:50;;;;;;;18.73;10.32;;;;;;;;;;5070630;28;19908;-59
2023/10/01 11:13:20;;;;;;;18.42;8.38;;;;;;;;;;5071175;28;20461;-60
2023/10/01 11:15:46;;;;;;;13.57;7.57;;;;;;;;;;5070094;28;20040;-59
2023/10/01 11:18:11;;;;;;;14.17;7.23;;;;;;;;;;5072357;28;20365;-60
2023/10/01 11:20:44;;;;;;;24.90;7.10;;;;;;;;;;5070847;28;20041;-59
2023/10/01 11:23:10;;;;;;;11.70;7.40;;;;;;;;;;5051822;28;20017;-59
2023/10/01 11:25:40;;;;;;;11.95;7.90;;;;;;;;;;5050706;28;20037;-59
2023/10/01 11:28:05;;;;;;;10.75;6.85;;;;;;;;;;5052423;28;20013;-60
2023/10/01 11:30:34;;;;;;;12.52;7.50;;;;;;;;;;5050210;28;20128;-59
2023/10/01 11:35:59;;;;;;;11.07;7.53;;;;;;;;;;5048449;28;20056;-59
2023/10/01 11:38:24;;;;;;;10.88;7.80;;;;;;;;;;5059111;28;20020;-59
2023/10/01 11:43:42;;;;;;;17.08;8.98;;;;;;;;;;5057999;28;20051;-59
2023/10/01 11:46:19;;;;;;;14.02;7.68;;;;;;;;;;5069333;28;20396;-59
2023/10/01 11:48:56;;;;;;;14.20;7.43;;;;;;;;;;5040830;28;20104;-59
2023/10/01 11:51:31;;;;;;;20.03;8.10;;;;;;;;;;5042350;28;20079;-60
2023/10/01 11:54:09;;;;;;;18.30;9.98;;;;;;;;;;5059362;28;20024;-59
2023/10/01 11:56:34;;;;;;;10.70;6.20;;;;;;;;;;5070262;28;20037;-60
2023/10/01 11:58:59;;;;;;;12.70;7.10;;;;;;;;;;5070715;28;20054;-59
2023/10/01 12:01:38;;;;;;;14.43;6.97;;;;;;;;;;5070013;28;20040;-60
2023/10/01 12:04:03;;;;;;;20.15;11.05;;;;;;;;;;5071435;28;20073;-60
2023/10/01 12:06:34;;;;;;;13.83;7.10;;;;;;;;;;5068803;28;20455;-59
2023/10/01 12:08:59;;;;;;;18.27;9.13;;;;;;;;;;5071312;28;20017;-59
2023/10/01 12:11:27;;;;;;;15.07;8.17;;;;;;;;;;5069784;28;20035;-59
2023/10/01 12:14:26;;;;;;;;;;;;;;;;;;5070858;28;20514;-60
2023/10/01 12:16:43;;;;;;;14.75;7.85;;;;;;;;;;5068177;28;19916;-59
2023/10/01 12:19:22;;;;;;;12.17;7.40;;;;;;;;;;5071239;28;20020;-60
2023/10/01 12:21:48;;;;;;;17.48;9.13;;;;;;;;;;5068495;28;20164;-59
2023/10/01 12:24:14;;;;;;;16.40;7.70;;;;;;;;;;5070928;28;20120;-59
2023/10/01 12:26:40;;;;;;;13.45;6.05;;;;;;;;;;5068892;28;20040;-59
2023/10/01 12:29:11;;;;;;;16.38;7.80;;;;;;;;;;5070674;28;20020;-59
2023/10/01 12:31:37;;;;;;;27.63;9.77;;;;;;;;;;5069040;28;20308;-59
2023/10/01 12:34:02;;;;;;;16.02;8.57;;;;;;;;;;5070405;28;20056;-59
2023/10/01 12:36:44;;;;;;;13.53;8.00;;;;;;;;;;5063061;28;20041;-59
2023/10/01 12:41:47;;;;;;;12.45;6.75;;;;;;;;;;5067386;28;20033;-59
2023/10/01 12:46:54;;;;;;;16.33;8.73;;;;;;;;;;5068173;28;20808;-59
2023/10/01 12:49:20;;;;;;;15.77;8.45;;;;;;;;;;5070410;28;20008;-60
2023/10/01 12:51:48;;;;;;;17.95;8.05;;;;;;;;;;5067829;28;20028;-60
2023/10/01 12:54:18;;;;;;;17.23;8.13;;;;;;;;;;5069942;28;20371;-64
2023/10/01 12:56:45;;;;;;;24.40;9.52;;;;;;;;;;5067571;28;20036;-69
2023/10/01 12:59:18;;;;;;;15.50;9.10;;;;;;;;;;5070436;28;20020;-59
2023/10/01 13:01:50;;;;;;;12.50;7.53;;;;;;;;;;5067540;28;20033;-59
2023/10/01 13:04:22;;;;;;;16.25;8.32;;;;;;;;;;5069836;28;20407;-59
2023/10/01 13:06:47;;;;;;;14.40;8.00;;;;;;;;;;5067625;28;20051;-59
2023/10/01 13:09:53;;;;;;;11.70;6.70;;;;;;;;;;5069926;28;20024;-59
2023/10/01 13:12:18;;;;;;;12.90;7.32;;;;;;;;;;5049935;28;20040;-65
2023/10/01 13:14:44;;;;;;;13.35;6.25;;;;;;;;;;5069856;28;20020;-59
2023/10/01 13:17:22;;;;;;;12.75;6.72;;;;;;;;;;5067464;28;20479;-59
2023/10/01 13:19:48;;;;;;;16.50;8.60;;;;;;;;;;5069519;28;20024;-60
2023/10/01 13:22:16;;;;;;;12.98;7.95;;;;;;;;;;5067489;28;20033;-59
2023/10/01 13:24:42;;;;;;;;;;;;;;;;;;5064255;28;20482;-59
2023/10/01 13:27:16;;;;;;;15.15;7.88;;;;;;;;;;5065949;28;20092;-59
2023/10/01 13:29:48;;;;;;;12.52;7.70;;;;;;;;;;5069672;28;20426;-59
2023/10/01 13:32:26;;;;;;;40.70;10.35;;;;;;;;;;5059310;28;20024;-59
2023/10/01 13:34:56;;;;;;;13.38;7.32;;;;;;;;;;5060302;28;20053;-59
2023/10/01 13:40:12;;;;;;;21.73;8.13;;;;;;;;;;5049614;28;20155;-59
2023/10/01 14:09:58;;;;;;;15.38;7.95;;;;;;;;;;5067487;28;20027;-60
2023/10/01 14:12:42;;;;;;;21.83;9.70;;;;;;;;;;5059025;28;20024;-58
2023/10/01 14:15:23;;;;;;;15.45;7.35;;;;;;;;;;5048414;28;20086;-57
2023/10/01 14:17:52;;;;;;;15.20;8.32;;;;;;;;;;5054563;28;20430;-58
2023/10/01 14:20:37;;;;;;;14.05;7.57;;;;;;;;;;5069217;28;20154;-58
2023/10/01 14:23:03;;;;;;;17.55;9.15;;;;;;;;;;5073178;28;20086;-57
2023/10/01 14:25:29;;;;;;;15.18;8.07;;;;;;;;;;5068382;28;20546;-58
2023/10/01 14:27:56;;;;;;;16.35;8.73;;;;;;;;;;5053923;28;20029;-57
2023/10/01 14:30:25;;;;;;;13.63;7.30;;;;;;;;;;5056957;28;20083;-59
2023/10/01 14:32:58;;;;;;;;;;;;;;;;;;5072829;28;20017;-72
2023/10/01 14:35:37;;;;;;;13.75;7.97;;;;;;;;;;5067100;28;19978;-58
2023/10/01 14:38:05;;;;;;;15.38;8.05;;;;;;;;;;5068073;28;20104;-67
2023/10/01 14:40:30;;;;;;;14.48;7.20;;;;;;;;;;5056283;28;20037;-58
2023/10/01 14:43:02;;;;;;;19.10;9.47;;;;;;;;;;5053734;28;20019;-58
2023/10/01 14:45:42;;;;;;;13.90;7.95;;;;;;;;;;5057933;28;20498;-58
2023/10/01 14:48:07;;;;;;;16.70;9.38;;;;;;;;;;5052350;28;20024;-57
2023/10/01 14:50:39;;;;;;;16.83;8.87;;;;;;;;;;5057917;28;20126;-58
2023/10/01 14:53:04;;;;;;;15.90;9.63;;;;;;;;;;5056291;28;20450;-58
2023/10/01 14:55:39;;;;;;;18.60;8.40;;;;;;;;;;5051231;28;20040;-57
2023/10/01 14:58:12;;;;;;;19.83;9.30;;;;;;;;;;5052975;28;20419;-58
2023/10/01 15:00:49;;;;;;;13.98;7.47;;;;;;;;;;5066007;28;20091;-58
2023/10/01 15:03:14;;;;;;;14.43;9.40;;;;;;;;;;5064021;28;20028;-58
2023/10/01 15:05:39;;;;;;;23.77;8.98;;;;;;;;;;5059141;28;20040;-58
2023/10/01 15:08:04;;;;;;;15.53;7.63;;;;;;;;;;5051847;28;20079;-59
2023/10/01 15:10:30;;;;;;;17.08;9.75;;;;;;;;;;5050173;28;20376;-59
2023/10/01 15:12:55;;;;;;;18.23;9.18;;;;;;;;;;5055359;28;20028;-59
2023/10/01 15:15:20;;;;;;;19.30;8.13;;;;;;;;;;5050179;28;20156;-57
2023/10/01 15:17:45;;;;;;;19.48;8.40;;;;;;;;;;5054001;28;20025;-58
2023/10/01 15:20:27;;;;;;;14.40;8.50;;;;;;;;;;5055658;28;20021;-58
2023/10/01 15:22:52;;;;;;;15.40;7.05;;;;;;;;;;5059331;28;20106;-59
2023/10/01 15:25:17;;;;;;;13.27;8.52;;;;;;;;;;5050299;28;20067;-58
2023/10/01 15:27:42;;;;;;;11.80;6.90;;;;;;;;;;5057719;28;20460;-58
2023/10/01 15:30:20;;;;;;;13.57;8.27;;;;;;;;;;5047973;28;20451;-58
2023/10/01 15:32:55;;;;;;;;;;;;;;;;;;5053153;28;20531;-59
2023/10/01 15:35:22;;;;;;;18.83;8.02;;;;;;;;;;5050549;28;19943;-59
2023/10/01 15:37:48;;;;;;;13.30;9.10;;;;;;;;;;5051698;28;20027;-65
2023/10/01 15:40:23;;;;;;;15.67;8.37;;;;;;;;;;5051830;28;23048;-59
2023/10/01 15:42:53;;;;;;;21.02;8.07;;;;;;;;;;5071918;28;20411;-58
2023/10/01 15:45:18;;;;;;;14.18;8.25;;;;;;;;;;5070718;28;20036;-58
2023/10/01 15:47:46;;;;;;;15.13;9.57;;;;;;;;;;5071844;28;20027;-58
2023/10/01 15:50:13;;;;;;;10.85;6.97;;;;;;;;;;5067855;28;20048;-58
2023/10/01 15:52:48;;;;;;;11.50;7.47;;;;;;;;;;5070368;28;20017;-58
2023/10/01 15:55:34;;;;;;;19.05;8.55;;;;;;;;;;5067530;28;20040;-58